Time;durP1;ratioP1;P1;durP2;ratioP2;P2;SDS_P1;SDS_P2;PMS_P1;PMS_P2;Temp;Humidity;BMP_temperature;BMP_pressure;BME280_temperature;BME280_humidity;BME280_pressure;Samples;Min_cycle;Max_cycle;Signal;HPM_P1;HPM_P2
2023/03/15 00:00:11;;;;;;;4.70;1.52;;;;;;;1.35;100.00;94776.91;5089487;28;20509;-72
2023/03/15 00:02:57;;;;;;;7.10;1.52;;;;;;;1.30;100.00;94769.06;5096352;28;20055;-72
2023/03/15 00:05:22;;;;;;;4.82;1.90;;;;;;;1.27;100.00;94766.91;5087711;28;20119;-72
2023/03/15 00:07:48;;;;;;;3.60;1.60;;;;;;;1.28;100.00;94776.25;5092066;28;20564;-72
2023/03/15 00:10:13;;;;;;;2.30;1.60;;;;;;;1.30;100.00;94774.25;5095309;28;20127;-72
2023/03/15 00:12:41;;;;;;;6.50;1.70;;;;;;;1.26;100.00;94767.94;5082240;28;20110;-73
2023/03/15 00:15:08;;;;;;;2.60;1.40;;;;;;;1.33;100.00;94763.41;5092769;28;20505;-72
2023/03/15 00:17:34;;;;;;;3.00;1.45;;;;;;;1.43;100.00;94768.78;5091755;28;20043;-72
2023/03/15 00:20:00;;;;;;;9.43;2.22;;;;;;;1.42;100.00;94751.66;5093321;28;20078;-72
2023/03/15 00:22:26;;;;;;;7.60;1.90;;;;;;;1.58;100.00;94770.09;5090419;28;20523;-72
2023/03/15 00:24:51;;;;;;;2.72;1.60;;;;;;;1.53;100.00;94763.78;5089972;28;20032;-72
2023/03/15 00:27:17;;;;;;;8.93;1.88;;;;;;;1.63;100.00;94773.56;5092403;28;20036;-72
2023/03/15 00:29:43;;;;;;;5.53;1.73;;;;;;;1.68;100.00;94772.88;5087583;28;20795;-72
2023/03/15 00:32:09;;;;;;;5.63;2.00;;;;;;;1.71;100.00;94775.00;5093353;28;20047;-72
2023/03/15 00:34:34;;;;;;;4.65;1.60;;;;;;;1.88;100.00;94786.25;5086347;28;20418;-71
2023/03/15 00:37:00;;;;;;;4.60;1.58;;;;;;;1.86;100.00;94780.47;5093372;28;20047;-71
2023/03/15 00:39:25;;;;;;;4.35;1.88;;;;;;;1.79;100.00;94779.84;5090558;28;20044;-72
2023/03/15 00:41:55;;;;;;;13.18;2.22;;;;;;;1.62;100.00;94776.41;5092921;28;20105;-72
2023/03/15 00:44:25;;;;;;;7.07;1.90;;;;;;;1.37;100.00;94774.91;5088573;28;20498;-71
2023/03/15 00:46:50;;;;;;;5.82;2.20;;;;;;;1.31;100.00;94776.59;5091770;28;20044;-71
2023/03/15 00:49:16;;;;;;;6.00;2.38;;;;;;;1.24;100.00;94764.78;5090767;28;20484;-71
2023/03/15 00:51:42;;;;;;;3.45;2.08;;;;;;;1.26;100.00;94767.94;5082637;28;20507;-72
2023/03/15 00:54:09;;;;;;;4.13;1.85;;;;;;;1.32;100.00;94772.19;5082629;28;20040;-72
2023/03/15 00:56:35;;;;;;;4.43;2.00;;;;;;;1.34;100.00;94775.34;5093558;28;20503;-71
2023/03/15 00:59:01;;;;;;;6.18;2.20;;;;;;;1.31;100.00;94781.00;5088992;28;20032;-71
2023/03/15 01:01:28;;;;;;;7.38;2.00;;;;;;;1.36;100.00;94796.66;5091671;28;20036;-71
2023/03/15 01:03:54;;;;;;;9.07;2.13;;;;;;;1.33;100.00;94828.22;5086647;28;20032;-71
2023/03/15 01:06:23;;;;;;;7.85;2.25;;;;;;;0.95;100.00;94853.59;5093332;28;20036;-71
2023/03/15 01:08:50;;;;;;;3.40;2.03;;;;;;;0.47;100.00;94860.47;5090662;28;20047;-71
2023/03/15 01:11:23;;;;;;;3.78;1.73;;;;;;;0.05;100.00;94857.88;5090270;28;20048;-71
2023/03/15 01:13:50;;;;;;;3.13;1.55;;;;;;;-0.04;100.00;94843.69;5087073;28;20040;-71
2023/03/15 01:16:16;;;;;;;2.72;1.40;;;;;;;-0.18;100.00;94851.59;5090141;28;20047;-71
2023/03/15 01:18:42;;;;;;;3.13;1.45;;;;;;;-0.25;100.00;94837.94;5086833;28;20145;-71
2023/03/15 01:21:10;;;;;;;4.35;1.60;;;;;;;-0.28;100.00;94838.38;5089772;28;20041;-70
2023/03/15 01:23:36;;;;;;;3.53;1.67;;;;;;;-0.41;100.00;94828.22;5093837;28;20403;-71
2023/03/15 01:26:04;;;;;;;3.65;2.00;;;;;;;-0.39;100.00;94823.59;5093875;28;20048;-70
2023/03/15 01:28:30;;;;;;;2.75;1.58;;;;;;;-0.33;100.00;94815.00;5090313;28;20040;-70
2023/03/15 01:30:55;;;;;;;3.15;1.83;;;;;;;-0.35;100.00;94824.75;5094610;28;20051;-71
2023/03/15 01:33:21;;;;;;;2.40;1.55;;;;;;;-0.33;100.00;94820.16;5091515;28;20040;-69
2023/03/15 01:35:47;;;;;;;3.15;1.60;;;;;;;-0.33;100.00;94804.66;5098360;28;20088;-71
2023/03/15 01:38:13;;;;;;;3.83;1.45;;;;;;;-0.35;100.00;94796.31;5091128;28;20496;-71
2023/03/15 01:40:44;;;;;;;2.50;1.35;;;;;;;-0.27;100.00;94787.47;5093708;28;20047;-70
2023/03/15 01:43:18;;;;;;;2.33;1.40;;;;;;;-0.28;100.00;94791.84;5088321;28;20052;-70
2023/03/15 01:45:52;;;;;;;;;;;;;;;-0.31;100.00;94807.78;5089049;28;20070;-71
2023/03/15 01:48:19;;;;;;;2.05;1.30;;;;;;;-0.22;100.00;94811.66;5090100;28;20295;-70
2023/03/15 01:50:45;;;;;;;2.38;1.30;;;;;;;-0.20;100.00;94809.66;5100852;28;20040;-70
2023/03/15 01:53:11;;;;;;;3.15;1.30;;;;;;;-0.19;100.00;94795.72;5092605;28;20514;-70
2023/03/15 01:55:37;;;;;;;2.58;1.48;;;;;;;-0.14;100.00;94812.34;5097180;28;20036;-71
2023/03/15 01:58:05;;;;;;;2.25;1.40;;;;;;;-0.18;100.00;94807.63;5087713;28;20040;-70
2023/03/15 02:00:31;;;;;;;2.80;1.65;;;;;;;-0.19;100.00;94811.22;5088943;28;20040;-70
2023/03/15 02:03:06;;;;;;;4.10;1.40;;;;;;;-0.09;100.00;94825.41;5088793;28;20028;-70
2023/03/15 02:05:44;;;;;;;4.35;1.58;;;;;;;-0.07;100.00;94839.72;5095448;28;20515;-69
2023/03/15 02:08:11;;;;;;;2.95;1.48;;;;;;;0.00;100.00;94839.66;5089714;28;20453;-70
2023/03/15 02:10:45;;;;;;;2.63;1.67;;;;;;;0.00;100.00;94839.66;5092124;28;20044;-70
2023/03/15 02:13:14;;;;;;;3.17;1.83;;;;;;;0.01;100.00;94841.22;5091350;28;20541;-70
2023/03/15 02:15:45;;;;;;;3.88;2.00;;;;;;;0.07;100.00;94840.34;5089414;28;20288;-70
2023/03/15 02:18:15;;;;;;;4.38;1.92;;;;;;;0.06;100.00;94833.59;5091350;28;20047;-70
2023/03/15 02:21:19;;;;;;;4.75;2.20;;;;;;;0.12;100.00;94852.63;5092651;28;20055;-70
2023/03/15 02:23:50;;;;;;;4.70;2.30;;;;;;;0.16;100.00;94853.75;5077705;28;20503;-70
2023/03/15 02:26:41;;;;;;;4.40;2.15;;;;;;;0.19;100.00;94857.69;5088593;28;20499;-70
2023/03/15 02:29:06;;;;;;;4.18;2.30;;;;;;;0.20;100.00;94862.66;5087154;28;20045;-70
2023/03/15 02:31:36;;;;;;;5.65;2.60;;;;;;;0.32;100.00;94867.88;5091403;28;20104;-70
2023/03/15 02:34:05;;;;;;;6.53;2.20;;;;;;;0.32;100.00;94873.06;5090991;28;20043;-70
2023/03/15 02:36:32;;;;;;;5.65;2.35;;;;;;;0.29;100.00;94879.47;5096510;28;20040;-71
2023/03/15 02:38:59;;;;;;;4.82;2.33;;;;;;;0.32;100.00;94880.81;5086889;28;20609;-71
2023/03/15 02:41:29;;;;;;;6.38;2.67;;;;;;;0.32;100.00;94883.41;5096474;28;20036;-71
2023/03/15 02:44:19;;;;;;;5.20;2.63;;;;;;;0.36;100.00;94884.56;5089592;28;20035;-71
2023/03/15 02:46:48;;;;;;;8.85;3.35;;;;;;;0.36;100.00;94894.91;5090880;28;20056;-71
2023/03/15 02:49:15;;;;;;;6.25;2.97;;;;;;;0.28;100.00;94890.03;5087679;28;20044;-71
2023/03/15 02:51:41;;;;;;;6.40;2.70;;;;;;;0.34;100.00;94902.09;5083543;28;20044;-71
2023/03/15 02:54:07;;;;;;;7.57;3.30;;;;;;;0.26;100.00;94905.78;5089257;28;20097;-71
2023/03/15 02:56:32;;;;;;;7.53;2.75;;;;;;;0.27;100.00;94909.16;5092965;28;20076;-71
2023/03/15 02:58:58;;;;;;;7.65;3.03;;;;;;;0.26;100.00;94921.31;5087280;28;20127;-71
2023/03/15 03:01:24;;;;;;;6.90;3.33;;;;;;;0.23;100.00;94941.66;5086012;28;20113;-71
2023/03/15 03:03:49;;;;;;;7.35;3.25;;;;;;;0.23;100.00;94957.16;5085734;28;20619;-71
2023/03/15 03:06:16;;;;;;;6.22;3.10;;;;;;;0.16;100.00;94958.06;5097389;28;20036;-71
2023/03/15 03:08:45;;;;;;;5.68;2.70;;;;;;;0.10;100.00;94968.47;5087556;28;20039;-71
2023/03/15 03:11:13;;;;;;;5.65;2.75;;;;;;;0.17;100.00;94980.34;5091446;28;20055;-71
2023/03/15 03:13:39;;;;;;;5.57;2.85;;;;;;;0.01;100.00;94990.47;5082773;28;20043;-71
2023/03/15 03:16:05;;;;;;;6.07;2.38;;;;;;;0.02;100.00;95018.72;5089602;28;20036;-71
2023/03/15 03:18:34;;;;;;;6.72;2.88;;;;;;;-0.08;100.00;95024.38;5090563;28;20514;-71
2023/03/15 03:21:02;;;;;;;6.15;2.70;;;;;;;-0.14;100.00;95039.94;5087698;28;20036;-70
2023/03/15 03:23:30;;;;;;;6.50;3.10;;;;;;;-0.19;100.00;95033.63;5081020;28;20051;-70
2023/03/15 03:25:56;;;;;;;3.97;2.17;;;;;;;-0.23;100.00;95049.78;5090276;28;20523;-71
2023/03/15 03:28:24;;;;;;;8.25;2.83;;;;;;;-0.30;100.00;95049.84;5089368;28;20090;-71
2023/03/15 03:30:50;;;;;;;5.72;3.10;;;;;;;-0.43;100.00;95062.88;5086238;28;20036;-71
2023/03/15 03:33:16;;;;;;;8.15;3.05;;;;;;;-0.48;100.00;95070.47;5086660;28;20043;-71
2023/03/15 03:35:42;;;;;;;8.80;3.30;;;;;;;-0.38;100.00;95081.13;5090417;28;20434;-71
2023/03/15 03:38:09;;;;;;;5.55;2.72;;;;;;;-0.47;100.00;95092.75;5093530;28;20040;-71
2023/03/15 03:40:35;;;;;;;7.43;2.70;;;;;;;-0.56;100.00;95090.41;5097255;28;20454;-70
2023/03/15 03:43:01;;;;;;;5.18;2.90;;;;;;;-0.46;100.00;95107.25;5085971;28;20069;-70
2023/03/15 03:45:26;;;;;;;6.88;2.97;;;;;;;-0.47;100.00;95114.22;5091030;28;20036;-70
2023/03/15 03:47:52;;;;;;;6.60;3.20;;;;;;;-0.50;100.00;95124.97;5091295;28;20115;-70
2023/03/15 03:50:17;;;;;;;10.88;3.40;;;;;;;-0.55;100.00;95123.03;5098203;28;20039;-70
2023/03/15 03:52:43;;;;;;;8.07;3.30;;;;;;;-0.40;100.00;95124.53;5083113;28;20040;-70
2023/03/15 03:55:12;;;;;;;12.02;3.10;;;;;;;-0.38;100.00;95133.63;5099375;28;20495;-71
2023/03/15 03:57:39;;;;;;;9.88;3.30;;;;;;;-0.40;100.00;95150.38;5096044;28;20047;-71
2023/03/15 04:00:06;;;;;;;11.52;3.88;;;;;;;-0.50;100.00;95165.53;5092083;28;20510;-71
2023/03/15 04:02:32;;;;;;;14.35;2.97;;;;;;;-0.51;100.00;95169.13;5084569;28;20040;-71
2023/03/15 04:04:58;;;;;;;8.02;3.13;;;;;;;-0.47;100.00;95175.47;5082860;28;20043;-71
2023/03/15 04:07:24;;;;;;;10.38;2.92;;;;;;;-0.39;100.00;95180.38;5090120;28;20042;-71
2023/03/15 04:09:49;;;;;;;6.75;2.90;;;;;;;-0.46;100.00;95187.38;5077114;28;20044;-70
2023/03/15 04:12:15;;;;;;;7.10;3.03;;;;;;;-0.48;100.00;95189.38;5094933;28;20505;-70
2023/03/15 04:14:41;;;;;;;8.63;3.95;;;;;;;-0.50;100.00;95194.78;5096011;28;20046;-70
2023/03/15 04:17:09;;;;;;;8.85;3.30;;;;;;;-0.56;100.00;95206.72;5089784;28;20040;-70
2023/03/15 04:19:35;;;;;;;7.45;3.15;;;;;;;-0.62;100.00;95199.78;5091583;28;20035;-71
2023/03/15 04:22:05;;;;;;;6.28;3.40;;;;;;;-0.62;100.00;95209.34;5095526;28;20054;-70
2023/03/15 04:24:35;;;;;;;7.72;3.05;;;;;;;-0.68;100.00;95210.16;5088013;28;20105;-70
2023/03/15 04:27:01;;;;;;;7.28;3.55;;;;;;;-0.73;100.00;95228.88;5096102;28;20036;-69
2023/03/15 04:29:27;;;;;;;7.50;3.33;;;;;;;-0.77;100.00;95217.38;5093379;28;20042;-70
2023/03/15 04:32:00;;;;;;;8.50;3.47;;;;;;;-0.71;100.00;95247.53;5095000;28;20044;-70
2023/03/15 04:34:27;;;;;;;14.68;3.60;;;;;;;-0.66;100.00;95260.66;5087106;28;20040;-70
2023/03/15 04:36:53;;;;;;;9.20;3.42;;;;;;;-0.74;100.00;95259.06;5098031;27;20403;-70
2023/03/15 04:39:19;;;;;;;8.25;3.47;;;;;;;-0.67;100.00;95266.81;5089927;28;20044;-70
2023/03/15 04:41:45;;;;;;;6.82;3.33;;;;;;;-0.73;100.00;95259.88;5097109;28;20040;-70
2023/03/15 04:44:10;;;;;;;8.50;3.83;;;;;;;-0.77;100.00;95274.22;5091003;28;20104;-70
2023/03/15 04:46:36;;;;;;;10.85;3.67;;;;;;;-0.75;100.00;95277.38;5095482;28;20036;-71
2023/03/15 04:49:03;;;;;;;13.55;3.83;;;;;;;-0.77;100.00;95280.16;5091926;28;20450;-70
2023/03/15 04:51:29;;;;;;;7.35;3.35;;;;;;;-0.79;100.00;95279.56;5097200;28;20388;-70
2023/03/15 04:53:54;;;;;;;6.47;3.30;;;;;;;-0.67;100.00;95290.06;5085348;28;20047;-71
2023/03/15 04:56:20;;;;;;;9.85;4.57;;;;;;;-0.78;100.00;95288.13;5098649;28;20044;-70
2023/03/15 04:58:46;;;;;;;10.05;3.40;;;;;;;-0.76;100.00;95292.09;5093297;28;20043;-71
2023/03/15 05:01:12;;;;;;;8.02;3.45;;;;;;;-0.80;100.00;95300.47;5090825;28;20036;-70
2023/03/15 05:03:37;;;;;;;9.70;4.07;;;;;;;-0.82;100.00;95312.78;5093465;28;20491;-71
2023/03/15 05:06:06;;;;;;;14.90;3.97;;;;;;;-0.91;100.00;95310.38;5095870;28;20047;-71
2023/03/15 05:08:35;;;;;;;13.00;3.92;;;;;;;-1.01;100.00;95307.44;5089674;28;20032;-70
2023/03/15 05:11:03;;;;;;;7.32;3.38;;;;;;;-1.02;100.00;95323.13;5088155;28;20036;-70
2023/03/15 05:13:28;;;;;;;16.10;3.65;;;;;;;-1.08;100.00;95335.06;5086834;28;20112;-71
2023/03/15 05:15:54;;;;;;;11.00;3.05;;;;;;;-1.12;100.00;95328.69;5098982;28;20749;-70
2023/03/15 05:18:20;;;;;;;11.88;3.83;;;;;;;-1.11;100.00;95340.63;5094180;28;20036;-71
2023/03/15 05:20:46;;;;;;;11.45;3.58;;;;;;;-1.11;100.00;95343.22;5094290;28;20036;-71
2023/03/15 05:23:12;;;;;;;19.17;3.80;;;;;;;-1.14;100.00;95341.03;5088343;28;20047;-71
2023/03/15 05:25:38;;;;;;;12.80;3.42;;;;;;;-1.15;100.00;95342.84;5095355;28;20502;-71
2023/03/15 05:28:04;;;;;;;11.13;3.10;;;;;;;-1.08;100.00;95350.56;5088995;28;20048;-71
2023/03/15 05:30:31;;;;;;;14.00;3.78;;;;;;;-1.20;100.00;95352.16;5095416;28;20044;-71
2023/03/15 05:32:56;;;;;;;15.43;3.83;;;;;;;-1.16;100.00;95363.69;5090401;28;20047;-71
2023/03/15 05:35:25;;;;;;;12.77;3.30;;;;;;;-1.13;100.00;95366.66;5094691;28;20044;-71
2023/03/15 05:37:56;;;;;;;19.48;4.78;;;;;;;-1.10;100.00;95374.00;5097817;28;20047;-71
2023/03/15 05:40:22;;;;;;;19.60;3.58;;;;;;;-1.07;100.00;95378.75;5096340;28;20040;-71
2023/03/15 05:42:48;;;;;;;12.55;4.43;;;;;;;-1.02;100.00;95385.94;5088006;28;20126;-71
2023/03/15 05:45:14;;;;;;;11.70;4.07;;;;;;;-1.07;100.00;95391.69;5094536;28;20119;-70
2023/03/15 05:47:39;;;;;;;10.13;3.83;;;;;;;-1.01;100.00;95387.50;5099805;28;20036;-70
2023/03/15 05:50:05;;;;;;;12.82;4.25;;;;;;;-1.01;100.00;95397.84;5094723;28;20043;-70
2023/03/15 05:52:31;;;;;;;14.50;4.90;;;;;;;-0.99;100.00;95406.19;5088280;28;20036;-70
2023/03/15 05:54:56;;;;;;;16.10;4.30;;;;;;;-1.06;100.00;95400.25;5091549;28;20036;-70
2023/03/15 05:57:22;;;;;;;14.48;4.43;;;;;;;-1.04;100.00;95403.41;5090972;28;20040;-70
2023/03/15 05:59:47;;;;;;;15.70;4.85;;;;;;;-0.93;100.00;95415.72;5086396;28;20064;-71
2023/03/15 06:02:13;;;;;;;13.65;4.28;;;;;;;-0.97;100.00;95424.88;5095219;28;20047;-70
2023/03/15 06:04:40;;;;;;;25.05;4.95;;;;;;;-0.98;100.00;95428.44;5093212;28;20040;-70
2023/03/15 06:07:05;;;;;;;13.15;4.32;;;;;;;-1.01;100.00;95418.50;5088518;28;20047;-71
2023/03/15 06:09:31;;;;;;;12.50;4.22;;;;;;;-0.99;100.00;95426.88;5084996;28;20036;-71
2023/03/15 06:11:57;;;;;;;16.08;4.22;;;;;;;-0.95;100.00;95433.22;5095222;28;20062;-72
2023/03/15 06:14:25;;;;;;;14.10;5.07;;;;;;;-0.95;100.00;95435.81;5088651;28;20395;-72
2023/03/15 06:16:50;;;;;;;12.93;3.78;;;;;;;-0.98;100.00;95438.75;5085513;28;20044;-71
2023/03/15 06:19:16;;;;;;;24.30;5.38;;;;;;;-1.01;100.00;95448.72;5085707;28;20040;-72
2023/03/15 06:21:42;;;;;;;17.83;4.32;;;;;;;-1.01;100.00;95456.47;5095048;28;20768;-73
2023/03/15 06:24:07;;;;;;;19.33;4.65;;;;;;;-1.04;100.00;95455.06;5089725;28;20111;-71
2023/03/15 06:26:33;;;;;;;16.70;4.78;;;;;;;-1.04;100.00;95460.22;5100837;28;20040;-72
2023/03/15 06:28:59;;;;;;;21.92;4.97;;;;;;;-1.04;100.00;95460.22;5092925;28;20067;-73
2023/03/15 06:31:24;;;;;;;17.58;5.20;;;;;;;-1.03;100.00;95472.16;5092242;28;20035;-71
2023/03/15 06:33:50;;;;;;;13.73;4.95;;;;;;;-1.11;100.00;95459.44;5095064;28;20035;-72
2023/03/15 06:36:16;;;;;;;16.42;5.10;;;;;;;-0.95;100.00;95479.72;5089540;28;20086;-72
2023/03/15 06:38:42;;;;;;;26.30;5.85;;;;;;;-0.95;100.00;95471.97;5096692;28;20063;-71
2023/03/15 06:41:07;;;;;;;16.83;5.35;;;;;;;-0.90;100.00;95476.53;5098172;28;21890;-72
2023/03/15 06:43:33;;;;;;;14.98;4.38;;;;;;;-0.91;100.00;95475.72;5103341;28;20040;-73
2023/03/15 06:45:59;;;;;;;19.23;5.35;;;;;;;-0.82;100.00;95480.72;5101971;28;20044;-72
2023/03/15 06:48:25;;;;;;;22.10;5.70;;;;;;;-0.79;100.00;95478.53;5095216;28;20040;-74
2023/03/15 06:50:51;;;;;;;23.25;5.40;;;;;;;-0.79;100.00;95493.22;5094455;28;20048;-73
2023/03/15 06:53:17;;;;;;;24.65;6.90;;;;;;;-0.72;100.00;95486.28;5106671;28;20040;-72
2023/03/15 06:55:44;;;;;;;21.15;7.45;;;;;;;-0.69;100.00;95493.63;5101907;28;20043;-72
2023/03/15 06:58:10;;;;;;;22.70;6.40;;;;;;;-0.74;100.00;95493.44;5096330;28;20046;-75
2023/03/15 07:00:36;;;;;;;22.25;6.38;;;;;;;-0.74;100.00;95496.03;5091692;28;20048;-74
2023/03/15 07:03:01;;;;;;;25.45;7.28;;;;;;;-0.68;100.00;95500.41;5087488;28;20062;-70
2023/03/15 07:05:27;;;;;;;19.95;6.93;;;;;;;-0.72;100.00;95500.00;5096345;28;20518;-71
2023/03/15 07:07:53;;;;;;;30.20;8.52;;;;;;;-0.71;100.00;95498.22;5088555;28;20079;-71
2023/03/15 07:10:19;;;;;;;23.27;6.93;;;;;;;-0.70;100.00;95499.81;5088555;28;20044;-70
2023/03/15 07:12:44;;;;;;;23.20;9.00;;;;;;;-0.69;100.00;95509.13;5085657;28;20047;-71
2023/03/15 07:15:10;;;;;;;37.88;11.20;;;;;;;-0.63;100.00;95503.19;5092297;28;20040;-70
2023/03/15 07:17:36;;;;;;;31.98;7.88;;;;;;;-0.59;100.00;95509.56;5088529;28;20044;-72
2023/03/15 07:20:04;;;;;;;30.83;8.40;;;;;;;-0.50;100.00;95511.94;5088292;28;20518;-71
2023/03/15 07:22:31;;;;;;;23.92;7.57;;;;;;;-0.59;100.00;95514.75;5084306;28;20052;-71
2023/03/15 07:24:57;;;;;;;24.08;8.25;;;;;;;-0.54;100.00;95508.97;5087283;28;20115;-71
2023/03/15 07:27:23;;;;;;;38.85;11.95;;;;;;;-0.49;100.00;95505.78;5087610;28;20036;-71
2023/03/15 07:29:48;;;;;;;28.05;8.05;;;;;;;-0.48;100.00;95520.28;5087286;28;20055;-71
2023/03/15 07:32:14;;;;;;;19.55;7.13;;;;;;;-0.38;100.00;95528.44;5087695;28;20654;-71
2023/03/15 07:34:40;;;;;;;29.05;9.00;;;;;;;-0.36;100.00;95529.03;5086772;28;20458;-71
2023/03/15 07:37:06;;;;;;;29.92;9.38;;;;;;;-0.35;100.00;95525.47;5089049;28;20036;-71
2023/03/15 07:39:31;;;;;;;28.52;9.23;;;;;;;-0.41;100.00;95526.25;5088628;28;20048;-71
2023/03/15 07:41:59;;;;;;;26.50;8.10;;;;;;;-0.42;100.00;95533.22;5086196;28;20044;-71
2023/03/15 07:44:25;;;;;;;37.63;9.85;;;;;;;-0.34;100.00;95537.41;5083062;28;20036;-70
2023/03/15 07:46:54;;;;;;;26.67;8.68;;;;;;;-0.32;100.00;95530.22;5091555;28;20090;-70
2023/03/15 07:49:23;;;;;;;31.55;8.32;;;;;;;-0.20;100.00;95530.44;5091785;28;20458;-69
2023/03/15 07:51:52;;;;;;;36.83;8.85;;;;;;;-0.35;100.00;95535.78;5098266;28;20043;-71
2023/03/15 07:54:18;;;;;;;22.73;9.02;;;;;;;-0.19;100.00;95535.41;5092252;28;20044;-70
2023/03/15 07:56:43;;;;;;;48.58;14.48;;;;;;;-0.20;100.00;95536.41;5083793;28;20048;-71
2023/03/15 07:59:09;;;;;;;28.08;8.63;;;;;;;-0.15;100.00;95532.41;5086772;28;20093;-72
2023/03/15 08:01:35;;;;;;;34.28;8.95;;;;;;;-0.20;100.00;95528.63;5093073;28;20043;-71
2023/03/15 08:04:01;;;;;;;31.75;9.15;;;;;;;-0.22;100.00;95528.03;5092189;28;20044;-72
2023/03/15 08:06:26;;;;;;;37.47;8.75;;;;;;;-0.13;100.00;95517.47;5095249;28;20063;-72
2023/03/15 08:08:52;;;;;;;29.35;9.27;;;;;;;-0.18;100.00;95526.63;5097460;28;20028;-71
2023/03/15 08:11:18;;;;;;;35.25;9.25;;;;;;;-0.29;100.00;95519.47;5095675;28;20036;-71
2023/03/15 08:13:43;;;;;;;28.65;9.27;;;;;;;-0.16;100.00;95530.81;5091792;28;20483;-71
2023/03/15 08:16:09;;;;;;;30.25;8.75;;;;;;;-0.01;100.00;95526.22;5092910;28;20048;-71
2023/03/15 08:18:34;;;;;;;27.65;9.75;;;;;;;0.20;100.00;95537.31;5095182;28;20036;-71
2023/03/15 08:21:00;;;;;;;30.30;9.63;;;;;;;0.05;100.00;95527.22;5095388;28;20040;-72
2023/03/15 08:23:26;;;;;;;32.28;8.98;;;;;;;0.09;100.00;95526.59;5094290;28;20044;-71
2023/03/15 08:25:51;;;;;;;24.35;8.65;;;;;;;0.07;100.00;95517.44;5093870;28;20063;-72
2023/03/15 08:28:17;;;;;;;29.58;9.52;;;;;;;0.31;100.00;95531.50;5094215;28;20071;-71
2023/03/15 08:30:43;;;;;;;24.42;8.20;;;;;;;0.50;100.00;95537.63;5095919;28;20055;-71
2023/03/15 08:33:09;;;;;;;33.95;9.15;;;;;;;0.77;100.00;95532.34;5090436;28;20048;-72
2023/03/15 08:35:34;;;;;;;31.10;9.02;;;;;;;0.68;100.00;95534.38;5096079;28;20189;-72
2023/03/15 08:38:01;;;;;;;29.27;8.15;;;;;;;0.61;100.00;95531.03;5092873;28;20065;-72
2023/03/15 08:40:28;;;;;;;31.48;8.52;;;;;;;0.76;100.00;95534.16;5094389;28;20040;-72
2023/03/15 08:42:55;;;;;;;24.95;8.52;;;;;;;0.67;100.00;95530.97;5088601;28;20122;-72
2023/03/15 08:45:23;;;;;;;30.27;9.38;;;;;;;0.78;100.00;95519.19;5090681;28;20085;-72
2023/03/15 08:47:49;;;;;;;38.00;9.20;;;;;;;0.83;100.00;95526.31;5086473;28;20050;-72
2023/03/15 08:50:16;;;;;;;25.50;8.30;;;;;;;0.86;100.00;95531.09;5092377;28;20153;-72
2023/03/15 08:52:45;;;;;;;22.75;8.55;;;;;;;0.79;100.00;95527.72;5089313;28;20085;-72
2023/03/15 08:55:23;;;;;;;30.30;8.48;;;;;;;0.98;100.00;95523.47;5110671;28;20024;-71
2023/03/15 08:57:51;;;;;;;29.55;8.77;;;;;;;1.20;100.00;95511.75;5104703;28;20153;-72
2023/03/15 09:00:21;;;;;;;34.92;9.18;;;;;;;1.27;100.00;95526.47;5086622;28;20048;-72
2023/03/15 09:02:48;;;;;;;33.33;8.57;;;;;;;1.44;100.00;95537.94;5092814;28;20109;-73
2023/03/15 09:05:15;;;;;;;16.70;6.10;;;;;;;1.44;100.00;95519.78;5089860;28;20123;-72
2023/03/15 09:07:42;;;;;;;22.60;7.32;;;;;;;1.37;100.00;95521.63;5091551;28;20040;-72
2023/03/15 09:10:12;;;;;;;26.58;6.82;;;;;;;1.53;100.00;95526.28;5090575;28;20743;-72
2023/03/15 09:12:37;;;;;;;20.50;6.55;;;;;;;1.75;100.00;95528.50;5091824;28;20044;-73
2023/03/15 09:15:03;;;;;;;21.25;7.20;;;;;;;1.65;100.00;95534.19;5112407;28;20048;-72
2023/03/15 09:17:28;;;;;;;22.83;6.85;;;;;;;1.66;100.00;95534.97;5117713;28;20063;-72
2023/03/15 09:19:54;;;;;;;22.70;6.95;;;;;;;1.52;100.00;95535.09;5116310;28;20044;-71
2023/03/15 09:22:20;;;;;;;29.02;7.25;;;;;;;1.67;100.00;95531.38;5116312;28;20056;-71
2023/03/15 09:24:45;;;;;;;20.52;7.70;;;;;;;1.83;100.00;95528.22;5111042;28;20036;-71
2023/03/15 09:27:11;;;;;;;18.33;5.30;;;;;;;1.77;100.00;95530.88;5117912;28;20032;-72
2023/03/15 09:29:36;;;;;;;15.60;5.45;;;;;;;1.85;100.00;95534.00;5117420;28;20060;-72
2023/03/15 09:32:02;;;;;;;22.55;6.78;;;;;;;1.84;100.00;95531.59;5113881;28;20063;-71
2023/03/15 09:34:28;;;;;;;21.85;7.30;;;;;;;1.85;100.00;95528.81;5116821;28;20047;-71
2023/03/15 09:36:53;;;;;;;22.40;7.30;;;;;;;2.05;100.00;95533.03;5118079;28;20055;-70
2023/03/15 09:39:20;;;;;;;20.58;6.30;;;;;;;2.08;100.00;95535.19;5117170;28;20042;-72
2023/03/15 09:41:51;;;;;;;14.43;4.45;;;;;;;2.16;100.00;95523.75;5093925;28;20036;-72
2023/03/15 09:44:33;;;;;;;27.10;6.30;;;;;;;2.21;100.00;95527.28;5089486;28;20480;-72
2023/03/15 09:47:32;;;;;;;20.83;6.45;;;;;;;2.31;100.00;95531.16;5090240;28;20051;-72
2023/03/15 09:50:13;;;;;;;15.38;5.72;;;;;;;2.49;100.00;95538.97;5090557;28;20066;-72
2023/03/15 09:52:49;;;;;;;31.90;7.60;;;;;;;2.22;100.00;95523.66;5081764;28;20040;-72
2023/03/15 09:55:19;;;;;;;22.50;6.55;;;;;;;2.38;100.00;95521.50;5087918;28;20047;-72
2023/03/15 09:57:51;;;;;;;16.85;4.75;;;;;;;2.37;100.00;95531.09;5081163;28;20115;-72
2023/03/15 10:00:44;;;;;;;17.10;5.65;;;;;;;2.75;100.00;95531.88;5090563;28;20412;-72
2023/03/15 10:03:17;;;;;;;16.85;5.22;;;;;;;3.15;100.00;95531.34;5083750;28;20122;-72
2023/03/15 10:05:47;;;;;;;16.52;5.47;;;;;;;3.19;100.00;95532.50;5084126;28;20574;-72
2023/03/15 10:08:16;;;;;;;20.77;6.47;;;;;;;3.37;100.00;95543.84;5091735;28;20188;-72
2023/03/15 10:11:05;;;;;;;18.60;4.80;;;;;;;3.77;100.00;95543.25;5085515;28;20043;-72
2023/03/15 10:13:42;;;;;;;22.63;5.95;;;;;;;4.29;100.00;95543.34;5081858;28;20431;-72
2023/03/15 10:16:15;;;;;;;13.93;5.07;;;;;;;4.29;100.00;95550.38;5090680;28;20044;-72
2023/03/15 10:19:00;;;;;;;17.20;5.43;;;;;;;3.78;100.00;95550.81;5089897;28;20028;-72
2023/03/15 10:21:52;;;;;;;22.63;6.22;;;;;;;3.94;100.00;95553.78;5085528;28;20040;-72
2023/03/15 10:24:28;;;;;;;17.40;4.60;;;;;;;3.42;100.00;95556.97;5083993;28;20514;-72
2023/03/15 10:26:58;;;;;;;20.02;4.60;;;;;;;3.24;100.00;95556.00;5091223;28;20040;-72
2023/03/15 10:29:25;;;;;;;18.45;5.13;;;;;;;4.03;100.00;95551.63;5091188;28;20044;-73
2023/03/15 10:31:53;;;;;;;18.88;4.72;;;;;;;4.68;100.00;95554.06;5084128;28;20040;-72
2023/03/15 10:34:18;;;;;;;15.65;4.40;;;;;;;5.03;100.00;95539.31;5086783;28;20051;-72
2023/03/15 10:36:54;;;;;;;7.95;3.38;;;;;;;5.68;100.00;95527.63;5091645;28;20411;-72
2023/03/15 10:39:20;;;;;;;13.27;4.45;;;;;;;5.33;100.00;95544.28;5090226;28;20443;-72
2023/03/15 10:41:48;;;;;;;6.82;2.88;;;;;;;6.15;100.00;95541.38;5090396;28;20453;-73
2023/03/15 10:44:18;;;;;;;8.23;3.25;;;;;;;6.35;100.00;95539.06;5077214;28;20482;-73
2023/03/15 10:47:01;;;;;;;16.67;3.80;;;;;;;6.43;90.83;95518.78;5082825;28;20040;-73
2023/03/15 10:49:38;;;;;;;12.43;2.92;;;;;;;6.80;82.54;95528.63;5087263;28;20044;-73
2023/03/15 10:52:04;;;;;;;10.32;3.15;;;;;;;6.93;94.44;95528.25;5089699;28;20036;-73
2023/03/15 10:54:33;;;;;;;10.43;2.83;;;;;;;7.28;91.63;95529.63;5087553;28;20510;-72
2023/03/15 10:57:10;;;;;;;10.25;3.42;;;;;;;7.23;84.82;95526.97;5084018;28;20047;-73
2023/03/15 10:59:36;;;;;;;9.77;3.17;;;;;;;7.58;79.26;95525.72;5088883;28;20056;-73
2023/03/15 11:02:11;;;;;;;10.55;3.22;;;;;;;7.83;86.43;95529.56;5082944;28;20560;-73
2023/03/15 11:04:40;;;;;;;;;;;;;;;6.54;76.61;95520.47;5086281;28;20036;-73
2023/03/15 11:07:06;;;;;;;7.13;2.53;;;;;;;7.40;79.30;95522.44;5084161;28;19931;-73
2023/03/15 11:09:42;;;;;;;15.02;3.22;;;;;;;8.39;67.71;95527.31;5091649;28;20036;-73
2023/03/15 11:12:15;;;;;;;7.47;2.80;;;;;;;8.01;79.06;95516.06;5089676;28;20058;-73
2023/03/15 11:14:46;;;;;;;8.68;3.25;;;;;;;9.00;76.69;95521.53;5083032;28;20044;-73
2023/03/15 11:17:40;;;;;;;8.43;2.85;;;;;;;10.35;75.41;95519.75;5090146;28;20044;-73
2023/03/15 11:20:35;;;;;;;9.88;2.95;;;;;;;10.72;64.70;95516.72;5084954;28;20052;-73
2023/03/15 11:23:15;;;;;;;5.18;2.35;;;;;;;9.74;57.61;95518.75;5085949;28;20044;-73
2023/03/15 11:25:41;;;;;;;5.72;2.50;;;;;;;9.45;58.07;95527.16;5089490;28;20062;-74
2023/03/15 11:28:17;;;;;;;6.20;2.08;;;;;;;8.07;52.83;95519.50;5089159;28;20126;-71
2023/03/15 11:30:44;;;;;;;6.43;1.73;;;;;;;9.37;55.33;95517.16;5089749;28;20401;-74